Gaza, Egypt

11:58 EET 22. Květen 2015 (GMT +0200)
Shoval | | Change Station
CLOSE
Current Station
Osobní povětrnostní stanice
Location: Shoval,
Nadmořská výška: 673 ft
Poblíž povětrnostní stanice

Výška 673 ft 31.41 °N, 34.74 °E | Updated 7 minutes ago

Partly Cloudy
Částečně oblačno
76.7 °F
Pocit jako 79 °F
S
3.0
Vítr proměnlivý Vítr od západní
Gusts 11.0 mil/h

Dnes
Vysoké -- | Nízké -- °F
--% Možnost srážek
Včera
Vysoké -- | Nízké -- °F
Precip. -- inčů
4:42 AM 6:35 PM
Dorůstající srpek, 20% visible
Tlak 29.95 inčů
Viditelnost 6.2 mílí
Zataženo Nemnoho 3000 ft
Tepelný index 79 °F
Rosný bod 60 °F
Vlhkost 56%
Dešťové srážky 0.00 inčů
Sněhová pokrývka Není k dispozici
UV záření 14 ze 12
Pyl Není k dispozici
Kvalita ovzduší Není k dispozici
Flu Activity Není k dispozici
METAR LLBG 220950Z 27007KT 9999 FEW030 25/14 Q1014 NOSIG

More Conditions Fewer Conditions

Tlak 29.95 inčů
Viditelnost 6.2 mílí
Zataženo Nemnoho 3000 ft
Tepelný index 79 °F
Rosný bod 60 °F
Vlhkost 56%
Dešťové srážky 0.00 inčů
Sněhová pokrývka Není k dispozici
UV záření 14 ze 12
Pyl Není k dispozici
Kvalita ovzduší Není k dispozici
Flu Activity Není k dispozici
METAR LLBG 220950Z 27007KT 9999 FEW030 25/14 Q1014 NOSIG

More Conditions Fewer Conditions

10-Day Weather Forecast

Almanac

Astronomie

May. 22, 2015 Východ Západ
Skutečný čas
Občanský soumrak
Námořní soumrak
Astronomický soumrak
Měsíc
Délka denního světla
Délka dne
Tomorrow will be .
, % of the Moon is Illuminated

Dnešní extrémy

Nejvyšší hodnoty ve státě Nejnižší hodnoty ve státě

Community

WunderPhotos

Upload Photos

1,823,195 snímků staženo!

WunderBlogs® & News

Nearby

Kvalita ovzduší

  Kvalita ovzduší Index kvality ovzduší Polutant
Not available.

Výška sněhu

Station Hloubka Nadmořská výška

Seizmická činnost

Město Distance Mag. Čas & datum
Minimální zobrazený rozsah je 2.5.

Pobřežní teplota vody

Lokalita Teplota

Stations

Poblíž povětrnostní stanice

Lokace stanice Tepl. Ochlazování větrem Rosný bod Vlhkost Vítr Precip. Výška Čas hlášení Typ